Time,TemperatureF,DewpointF,PressureIn,WindDirection,WindDirectionDegrees,WindSpeedMPH,WindSpeedGustMPH,Humidity,HourlyPrecipIn,Conditions,Clouds,dailyrainin,SoftwareType,DateUTC
2013-01-24 00:00:00,13.0,9.9,30.20,West,267,1.0,1.0,87,0.00,,,0.00,Wunderground v.1.15,2013-01-24 05:00:00,
2013-01-24 00:01:00,13.0,9.9,30.20,West,267,1.0,1.0,87,0.00,,,0.00,Wunderground v.1.15,2013-01-24 05:01:00,
2013-01-24 00:02:00,13.0,9.9,30.20,West,267,1.0,3.0,87,0.00,,,0.00,Wunderground v.1.15,2013-01-24 05:02:00,
2013-01-24 00:06:00,13.0,9.9,30.20,West,267,1.0,3.0,87,0.00,,,0.00,Wunderground v.1.15,2013-01-24 05:06:00,
2013-01-24 00:12:00,13.0,9.9,30.21,West,268,1.0,3.0,87,0.00,,,0.00,Wunderground v.1.15,2013-01-24 05:12:00,
2013-01-24 00:18:00,12.8,9.7,30.21,West,268,1.0,4.0,87,0.00,,,0.00,Wunderground v.1.15,2013-01-24 05:18:00,
2013-01-24 00:24:00,12.8,9.9,30.21,West,269,1.0,3.0,88,0.00,,,0.00,Wunderground v.1.15,2013-01-24 05:24:00,
2013-01-24 00:30:00,13.0,10.1,30.22,North,360,3.0,4.0,88,0.00,,,0.00,Wunderground v.1.15,2013-01-24 05:30:00,
2013-01-24 00:35:00,13.1,10.2,30.22,North,5,4.0,6.0,88,0.00,,,0.00,Wunderground v.1.15,2013-01-24 05:35:00,
2013-01-24 00:41:00,13.4,10.8,30.22,NNE,26,5.0,6.0,89,0.00,,,0.00,Wunderground v.1.15,2013-01-24 05:41:00,
2013-01-24 00:46:00,13.4,10.5,30.22,NNE,24,5.0,6.0,88,0.00,,,0.00,Wunderground v.1.15,2013-01-24 05:46:00,
2013-01-24 00:52:00,13.4,10.5,30.23,NNE,24,5.0,8.0,88,0.00,,,0.00,Wunderground v.1.15,2013-01-24 05:52:00,
2013-01-24 00:58:00,13.2,10.1,30.23,NNE,19,4.0,8.0,87,0.00,,,0.00,Wunderground v.1.15,2013-01-24 05:58:00,
2013-01-24 01:03:00,12.8,9.7,30.24,NNE,18,3.0,7.0,87,0.00,,,0.00,Wunderground v.1.15,2013-01-24 06:03:00,
2013-01-24 01:08:00,12.6,9.2,30.24,NNE,19,4.0,7.0,86,0.00,,,0.00,Wunderground v.1.15,2013-01-24 06:08:00,
2013-01-24 01:13:00,12.3,8.9,30.24,NNE,18,3.0,4.0,86,0.00,,,0.00,Wunderground v.1.15,2013-01-24 06:13:00,
2013-01-24 01:19:00,11.9,8.5,30.25,North,11,2.0,2.0,86,0.00,,,0.00,Wunderground v.1.15,2013-01-24 06:19:00,
2013-01-24 01:25:00,11.6,8.2,30.25,North,360,2.0,4.0,86,0.00,,,0.00,Wunderground v.1.15,2013-01-24 06:25:00,
2013-01-24 01:30:00,11.3,7.9,30.25,North,355,3.0,6.0,86,0.00,,,0.00,Wunderground v.1.15,2013-01-24 06:30:00,
2013-01-24 01:36:00,11.3,8.2,30.26,NNW,345,4.0,6.0,87,0.00,,,0.00,Wunderground v.1.15,2013-01-24 06:36:00,
2013-01-24 01:41:00,11.2,8.1,30.26,NNW,338,4.0,5.0,87,0.00,,,0.00,Wunderground v.1.15,2013-01-24 06:41:00,
2013-01-24 01:46:00,11.1,8.0,30.27,North,355,4.0,6.0,87,0.00,,,0.00,Wunderground v.1.15,2013-01-24 06:46:00,
2013-01-24 01:52:00,11.0,7.9,30.27,NNW,348,4.0,5.0,87,0.00,,,0.00,Wunderground v.1.15,2013-01-24 06:52:00,
2013-01-24 01:58:00,10.8,7.7,30.28,North,360,5.0,5.0,87,0.00,,,0.00,Wunderground v.1.15,2013-01-24 06:58:00,
2013-01-24 02:03:00,10.7,7.3,30.28,North,5,4.0,7.0,86,0.00,,,0.00,Wunderground v.1.15,2013-01-24 07:03:00,
2013-01-24 02:08:00,10.5,7.4,30.28,NNW,346,4.0,7.0,87,0.00,,,0.00,Wunderground v.1.15,2013-01-24 07:08:00,
2013-01-24 02:13:00,10.3,7.2,30.28,NNW,346,3.0,4.0,87,0.00,,,0.00,Wunderground v.1.15,2013-01-24 07:13:00,
2013-01-24 02:19:00,10.0,6.9,30.29,NW,321,3.0,4.0,87,0.00,,,0.00,Wunderground v.1.15,2013-01-24 07:19:00,
2013-01-24 02:25:00,9.9,6.8,30.30,NW,326,3.0,7.0,87,0.00,,,0.00,Wunderground v.1.15,2013-01-24 07:25:00,
2013-01-24 02:31:00,9.5,6.4,30.30,NNW,327,3.0,5.0,87,0.00,,,0.00,Wunderground v.1.15,2013-01-24 07:31:00,
2013-01-24 02:36:00,9.2,6.1,30.31,NNW,329,3.0,6.0,87,0.00,,,0.00,Wunderground v.1.15,2013-01-24 07:36:00,
2013-01-24 02:42:00,9.0,5.9,30.31,NNE,22,3.0,6.0,87,0.00,,,0.00,Wunderground v.1.15,2013-01-24 07:42:00,
2013-01-24 02:48:00,8.7,5.6,30.32,NNE,18,4.0,6.0,87,0.00,,,0.00,Wunderground v.1.15,2013-01-24 07:48:00,
2013-01-24 02:53:00,8.3,5.0,30.32,NNE,18,3.0,4.0,86,0.00,,,0.00,Wunderground v.1.15,2013-01-24 07:53:00,
2013-01-24 02:59:00,8.1,5.0,30.33,North,355,3.0,4.0,87,0.00,,,0.00,Wunderground v.1.15,2013-01-24 07:59:00,
2013-01-24 03:04:00,8.1,5.0,30.33,North,355,3.0,4.0,87,0.00,,,0.00,Wunderground v.1.15,2013-01-24 08:04:00,
2013-01-24 03:10:00,8.1,5.0,30.33,North,355,3.0,3.0,87,0.00,,,0.00,Wunderground v.1.15,2013-01-24 08:10:00,
2013-01-24 03:15:00,8.1,5.0,30.34,NNW,348,3.0,6.0,87,0.00,,,0.00,Wunderground v.1.15,2013-01-24 08:15:00,
2013-01-24 03:21:00,8.1,5.0,30.34,NNW,347,3.0,4.0,87,0.00,,,0.00,Wunderground v.1.15,2013-01-24 08:21:00,
2013-01-24 03:26:00,8.1,5.0,30.34,NNW,339,3.0,6.0,87,0.00,,,0.00,Wunderground v.1.15,2013-01-24 08:26:00,
2013-01-24 03:32:00,8.1,5.0,30.35,NNW,330,3.0,6.0,87,0.00,,,0.00,Wunderground v.1.15,2013-01-24 08:32:00,
2013-01-24 03:37:00,8.0,4.9,30.35,NNW,344,3.0,6.0,87,0.00,,,0.00,Wunderground v.1.15,2013-01-24 08:37:00,
2013-01-24 03:42:00,7.9,4.8,30.35,NNW,343,3.0,3.0,87,0.00,,,0.00,Wunderground v.1.15,2013-01-24 08:42:00,
2013-01-24 03:48:00,7.7,4.6,30.36,NNW,333,2.0,5.0,87,0.00,,,0.00,Wunderground v.1.15,2013-01-24 08:48:00,
2013-01-24 03:53:00,7.7,4.6,30.36,NNW,338,3.0,6.0,87,0.00,,,0.00,Wunderground v.1.15,2013-01-24 08:53:00,
2013-01-24 03:59:00,7.6,4.5,30.36,NNW,336,4.0,6.0,87,0.00,,,0.00,Wunderground v.1.15,2013-01-24 08:59:00,
2013-01-24 04:04:00,7.5,4.4,30.37,NNW,338,3.0,4.0,87,0.00,,,0.00,Wunderground v.1.15,2013-01-24 09:04:00,
2013-01-24 04:09:00,7.2,4.1,30.37,North,355,3.0,5.0,87,0.00,,,0.00,Wunderground v.1.15,2013-01-24 09:09:00,
2013-01-24 04:14:00,7.2,4.1,30.38,NNW,346,3.0,10.0,87,0.00,,,0.00,Wunderground v.1.15,2013-01-24 09:14:00,
2013-01-24 04:19:00,7.2,4.1,30.38,NW,318,3.0,10.0,87,0.00,,,0.00,Wunderground v.1.15,2013-01-24 09:19:00,
2013-01-24 04:25:00,7.2,4.1,30.38,North,9,3.0,7.0,87,0.00,,,0.00,Wunderground v.1.15,2013-01-24 09:25:00,
2013-01-24 04:30:00,7.2,4.1,30.39,North,355,4.0,6.0,87,0.00,,,0.00,Wunderground v.1.15,2013-01-24 09:30:00,
2013-01-24 04:35:00,7.2,4.1,30.39,North,355,5.0,6.0,87,0.00,,,0.00,Wunderground v.1.15,2013-01-24 09:35:00,
2013-01-24 04:41:00,7.0,3.9,30.39,NNW,344,4.0,9.0,87,0.00,,,0.00,Wunderground v.1.15,2013-01-24 09:41:00,
2013-01-24 04:46:00,6.9,3.8,30.40,North,360,5.0,9.0,87,0.00,,,0.00,Wunderground v.1.15,2013-01-24 09:46:00,
2013-01-24 04:52:00,6.7,3.7,30.41,NNW,348,3.0,6.0,87,0.00,,,0.00,Wunderground v.1.15,2013-01-24 09:52:00,
2013-01-24 04:57:00,6.6,3.6,30.42,North,9,4.0,6.0,87,0.00,,,0.00,Wunderground v.1.15,2013-01-24 09:57:00,
2013-01-24 05:03:00,6.5,3.2,30.42,North,355,3.0,5.0,86,0.00,,,0.00,Wunderground v.1.15,2013-01-24 10:03:00,
2013-01-24 05:09:00,6.4,3.1,30.42,NNW,329,3.0,5.0,86,0.00,,,0.00,Wunderground v.1.15,2013-01-24 10:09:00,
2013-01-24 05:14:00,6.3,3.0,30.43,North,360,3.0,4.0,86,0.00,,,0.00,Wunderground v.1.15,2013-01-24 10:14:00,
2013-01-24 05:20:00,6.3,3.3,30.43,North,5,3.0,3.0,87,0.00,,,0.00,Wunderground v.1.15,2013-01-24 10:20:00,
2013-01-24 05:26:00,6.3,3.3,30.44,NNW,339,4.0,4.0,87,0.00,,,0.00,Wunderground v.1.15,2013-01-24 10:26:00,
2013-01-24 05:32:00,6.3,3.0,30.44,North,360,4.0,6.0,86,0.00,,,0.00,Wunderground v.1.15,2013-01-24 10:32:00,
2013-01-24 05:37:00,6.2,2.9,30.45,NNW,340,4.0,6.0,86,0.00,,,0.00,Wunderground v.1.15,2013-01-24 10:37:00,
2013-01-24 05:43:00,6.0,2.7,30.45,NNE,18,3.0,5.0,86,0.00,,,0.00,Wunderground v.1.15,2013-01-24 10:43:00,
2013-01-24 05:49:00,5.8,2.5,30.46,NNW,339,3.0,6.0,86,0.00,,,0.00,Wunderground v.1.15,2013-01-24 10:49:00,
2013-01-24 05:54:00,5.6,2.3,30.46,North,355,3.0,4.0,86,0.00,,,0.00,Wunderground v.1.15,2013-01-24 10:54:00,
2013-01-24 06:00:00,5.5,2.2,30.47,North,360,3.0,3.0,86,0.00,,,0.00,Wunderground v.1.15,2013-01-24 11:00:00,
2013-01-24 06:05:00,5.3,2.0,30.47,North,355,3.0,4.0,86,0.00,,,0.00,Wunderground v.1.15,2013-01-24 11:05:00,
2013-01-24 06:11:00,5.2,1.9,30.48,NNW,347,3.0,3.0,86,0.00,,,0.00,Wunderground v.1.15,2013-01-24 11:11:00,
2013-01-24 06:17:00,5.0,1.7,30.48,NNW,330,3.0,4.0,86,0.00,,,0.00,Wunderground v.1.15,2013-01-24 11:17:00,
2013-01-24 06:22:00,5.0,1.7,30.48,NNW,340,3.0,5.0,86,0.00,,,0.00,Wunderground v.1.15,2013-01-24 11:22:00,
2013-01-24 06:27:00,4.9,1.6,30.49,NNW,340,4.0,6.0,86,0.00,,,0.00,Wunderground v.1.15,2013-01-24 11:27:00,
2013-01-24 06:33:00,4.9,1.6,30.49,NNW,341,3.0,4.0,86,0.00,,,0.00,Wunderground v.1.15,2013-01-24 11:33:00,
2013-01-24 06:39:00,4.9,1.6,30.49,NNW,341,3.0,5.0,86,0.00,,,0.00,Wunderground v.1.15,2013-01-24 11:39:00,
2013-01-24 06:44:00,4.8,1.5,30.50,NNW,339,2.0,3.0,86,0.00,,,0.00,Wunderground v.1.15,2013-01-24 11:44:00,
2013-01-24 06:50:00,4.7,1.4,30.50,NNW,338,2.0,2.0,86,0.00,,,0.00,Wunderground v.1.15,2013-01-24 11:50:00,
2013-01-24 06:55:00,4.6,1.3,30.50,NNW,341,2.0,3.0,86,0.00,,,0.00,Wunderground v.1.15,2013-01-24 11:55:00,
2013-01-24 07:01:00,4.6,1.3,30.51,NNW,342,2.0,2.0,86,0.00,,,0.00,Wunderground v.1.15,2013-01-24 12:01:00,
2013-01-24 07:07:00,4.5,1.2,30.52,NNW,341,2.0,2.0,86,0.00,,,0.00,Wunderground v.1.15,2013-01-24 12:07:00,
2013-01-24 07:12:00,4.5,1.2,30.52,NNW,345,2.0,2.0,86,0.00,,,0.00,Wunderground v.1.15,2013-01-24 12:12:00,
2013-01-24 07:18:00,4.5,1.2,30.53,NNW,344,2.0,4.0,86,0.00,,,0.00,Wunderground v.1.15,2013-01-24 12:18:00,
2013-01-24 07:23:00,4.5,1.2,30.53,NNW,344,2.0,3.0,86,0.00,,,0.00,Wunderground v.1.15,2013-01-24 12:23:00,
2013-01-24 07:29:00,4.5,1.2,30.54,NNW,337,2.0,3.0,86,0.00,,,0.00,Wunderground v.1.15,2013-01-24 12:29:00,
2013-01-24 07:34:00,4.5,1.0,30.54,NNW,346,3.0,5.0,85,0.00,,,0.00,Wunderground v.1.15,2013-01-24 12:34:00,
2013-01-24 07:40:00,4.6,1.3,30.55,NNW,341,3.0,4.0,86,0.00,,,0.00,Wunderground v.1.15,2013-01-24 12:40:00,
2013-01-24 07:45:00,4.6,1.3,30.55,NNW,332,3.0,4.0,86,0.00,,,0.00,Wunderground v.1.15,2013-01-24 12:45:00,
2013-01-24 07:50:00,4.6,1.1,30.56,NW,311,3.0,3.0,85,0.00,,,0.00,Wunderground v.1.15,2013-01-24 12:50:00,
2013-01-24 07:55:00,4.5,1.0,30.56,NW,316,2.0,3.0,85,0.00,,,0.00,Wunderground v.1.15,2013-01-24 12:55:00,
2013-01-24 08:01:00,4.4,0.9,30.56,NW,324,2.0,5.0,85,0.00,,,0.00,Wunderground v.1.15,2013-01-24 13:01:00,
2013-01-24 08:06:00,4.2,0.7,30.56,NNW,329,2.0,5.0,85,0.00,,,0.00,Wunderground v.1.15,2013-01-24 13:06:00,
2013-01-24 08:12:00,4.2,0.7,30.56,NNW,346,3.0,4.0,85,0.00,,,0.00,Wunderground v.1.15,2013-01-24 13:12:00,
2013-01-24 08:17:00,4.2,0.7,30.57,North,360,3.0,4.0,85,0.00,,,0.00,Wunderground v.1.15,2013-01-24 13:17:00,
2013-01-24 08:23:00,4.2,0.7,30.57,North,360,2.0,4.0,85,0.00,,,0.00,Wunderground v.1.15,2013-01-24 13:23:00,
2013-01-24 08:29:00,4.2,0.7,30.57,North,360,2.0,4.0,85,0.00,,,0.00,Wunderground v.1.15,2013-01-24 13:29:00,
2013-01-24 08:34:00,4.3,0.8,30.57,North,360,2.0,3.0,85,0.00,,,0.00,Wunderground v.1.15,2013-01-24 13:34:00,
2013-01-24 08:40:00,4.2,0.7,30.58,North,360,2.0,3.0,85,0.00,,,0.00,Wunderground v.1.15,2013-01-24 13:40:00,
2013-01-24 08:45:00,4.2,0.7,30.58,NNE,25,3.0,6.0,85,0.00,,,0.00,Wunderground v.1.15,2013-01-24 13:45:00,
2013-01-24 08:51:00,4.3,0.8,30.58,NNE,22,4.0,5.0,85,0.00,,,0.00,Wunderground v.1.15,2013-01-24 13:51:00,
2013-01-24 08:57:00,4.4,0.9,30.59,NNE,21,3.0,5.0,85,0.00,,,0.00,Wunderground v.1.15,2013-01-24 13:57:00,
2013-01-24 09:02:00,4.6,1.1,30.59,North,5,4.0,5.0,85,0.00,,,0.00,Wunderground v.1.15,2013-01-24 14:02:00,
2013-01-24 09:07:00,4.7,1.2,30.59,North,360,3.0,6.0,85,0.00,,,0.00,Wunderground v.1.15,2013-01-24 14:07:00,
2013-01-24 09:12:00,4.8,1.3,30.59,NNE,29,4.0,4.0,85,0.00,,,0.00,Wunderground v.1.15,2013-01-24 14:12:00,
2013-01-24 09:17:00,5.0,1.5,30.60,North,360,4.0,6.0,85,0.00,,,0.00,Wunderground v.1.15,2013-01-24 14:17:00,
2013-01-24 09:23:00,5.2,1.7,30.60,NE,36,4.0,5.0,85,0.00,,,0.00,Wunderground v.1.15,2013-01-24 14:23:00,
2013-01-24 09:29:00,5.5,2.0,30.60,NNE,26,5.0,7.0,85,0.00,,,0.00,Wunderground v.1.15,2013-01-24 14:29:00,
2013-01-24 09:35:00,5.8,2.3,30.61,NNE,19,5.0,7.0,85,0.00,,,0.00,Wunderground v.1.15,2013-01-24 14:35:00,
2013-01-24 09:41:00,6.1,2.3,30.61,NNE,22,5.0,9.0,84,0.00,,,0.00,Wunderground v.1.15,2013-01-24 14:41:00,
2013-01-24 09:46:00,6.2,2.4,30.62,NNE,24,5.0,9.0,84,0.00,,,0.00,Wunderground v.1.15,2013-01-24 14:46:00,
2013-01-24 09:51:00,6.7,2.9,30.63,North,349,4.0,4.0,84,0.00,,,0.00,Wunderground v.1.15,2013-01-24 14:51:00,
2013-01-24 09:56:00,7.1,3.3,30.63,NNE,17,4.0,6.0,84,0.00,,,0.00,Wunderground v.1.15,2013-01-24 14:56:00,
2013-01-24 10:03:00,7.4,3.3,30.64,North,349,4.0,7.0,83,0.00,,,0.00,Wunderground v.1.15,2013-01-24 15:03:00,
2013-01-24 10:08:00,7.7,3.6,30.64,NNE,13,4.0,7.0,83,0.00,,,0.00,Wunderground v.1.15,2013-01-24 15:08:00,
2013-01-24 10:13:00,7.9,3.5,30.65,NNE,13,5.0,7.0,82,0.00,,,0.00,Wunderground v.1.15,2013-01-24 15:13:00,
2013-01-24 10:19:00,8.3,3.9,30.65,NNE,18,5.0,7.0,82,0.00,,,0.00,Wunderground v.1.15,2013-01-24 15:19:00,
2013-01-24 10:24:00,8.5,3.9,30.65,NNE,15,4.0,6.0,81,0.00,,,0.00,Wunderground v.1.15,2013-01-24 15:24:00,
2013-01-24 10:30:00,8.8,3.9,30.65,NNE,28,4.0,6.0,80,0.00,,,0.00,Wunderground v.1.15,2013-01-24 15:30:00,
2013-01-24 10:35:00,8.8,3.9,30.66,North,9,4.0,6.0,80,0.00,,,0.00,Wunderground v.1.15,2013-01-24 15:35:00,
2013-01-24 10:41:00,9.1,4.2,30.66,NNE,19,4.0,5.0,80,0.00,,,0.00,Wunderground v.1.15,2013-01-24 15:41:00,
2013-01-24 10:47:00,9.4,4.2,30.66,NNE,16,4.0,7.0,79,0.00,,,0.00,Wunderground v.1.15,2013-01-24 15:47:00,
2013-01-24 10:52:00,9.6,4.1,30.66,NNE,24,4.0,7.0,78,0.00,,,0.00,Wunderground v.1.15,2013-01-24 15:52:00,
2013-01-24 10:58:00,9.8,4.3,30.67,North,360,4.0,9.0,78,0.00,,,0.00,Wunderground v.1.15,2013-01-24 15:58:00,
2013-01-24 11:03:00,10.0,4.5,30.67,NNE,26,4.0,5.0,78,0.00,,,0.00,Wunderground v.1.15,2013-01-24 16:03:00,
2013-01-24 11:09:00,10.2,4.4,30.67,North,5,4.0,5.0,77,0.00,,,0.00,Wunderground v.1.15,2013-01-24 16:09:00,
2013-01-24 11:14:00,10.2,4.4,30.67,NNE,23,4.0,5.0,77,0.00,,,0.00,Wunderground v.1.15,2013-01-24 16:14:00,
2013-01-24 11:20:00,10.7,4.9,30.67,NNE,21,3.0,3.0,77,0.00,,,0.00,Wunderground v.1.15,2013-01-24 16:20:00,
2013-01-24 11:25:00,10.9,4.8,30.67,North,5,3.0,5.0,76,0.00,,,0.00,Wunderground v.1.15,2013-01-24 16:25:00,
2013-01-24 11:30:00,11.1,5.0,30.67,NNE,14,3.0,3.0,76,0.00,,,0.00,Wunderground v.1.15,2013-01-24 16:30:00,
2013-01-24 11:36:00,11.3,4.9,30.67,NNE,22,3.0,6.0,75,0.00,,,0.00,Wunderground v.1.15,2013-01-24 16:36:00,
2013-01-24 11:42:00,11.1,4.7,30.67,North,360,4.0,4.0,75,0.00,,,0.00,Wunderground v.1.15,2013-01-24 16:42:00,
2013-01-24 11:47:00,11.4,5.3,30.67,NNE,14,3.0,4.0,76,0.00,,,0.00,Wunderground v.1.15,2013-01-24 16:47:00,
2013-01-24 11:53:00,11.6,5.2,30.66,North,10,2.0,6.0,75,0.00,,,0.00,Wunderground v.1.15,2013-01-24 16:53:00,
2013-01-24 11:59:00,11.8,5.4,30.66,NNE,20,3.0,7.0,75,0.00,,,0.00,Wunderground v.1.15,2013-01-24 16:59:00,
2013-01-24 12:04:00,11.9,5.2,30.66,NNE,17,3.0,3.0,74,0.00,,,0.00,Wunderground v.1.15,2013-01-24 17:04:00,
2013-01-24 12:09:00,12.0,5.3,30.65,North,9,2.0,3.0,74,0.00,,,0.00,Wunderground v.1.15,2013-01-24 17:09:00,
2013-01-24 12:15:00,12.1,5.4,30.65,NE,34,3.0,4.0,74,0.00,,,0.00,Wunderground v.1.15,2013-01-24 17:15:00,
2013-01-24 12:21:00,12.4,5.4,30.65,NNW,338,3.0,5.0,73,0.00,,,0.00,Wunderground v.1.15,2013-01-24 17:21:00,
2013-01-24 12:26:00,12.3,5.3,30.65,NNW,340,3.0,7.0,73,0.00,,,0.00,Wunderground v.1.15,2013-01-24 17:26:00,
2013-01-24 12:31:00,12.5,5.8,30.65,NW,317,3.0,5.0,74,0.00,,,0.00,Wunderground v.1.15,2013-01-24 17:31:00,
2013-01-24 12:36:00,12.4,5.4,30.65,NW,313,3.0,5.0,73,0.00,,,0.00,Wunderground v.1.15,2013-01-24 17:36:00,
2013-01-24 12:43:00,12.6,5.6,30.65,North,5,4.0,5.0,73,0.00,,,0.00,Wunderground v.1.15,2013-01-24 17:43:00,
2013-01-24 12:48:00,12.7,5.4,30.65,North,5,4.0,6.0,72,0.00,,,0.00,Wunderground v.1.15,2013-01-24 17:48:00,
2013-01-24 12:53:00,12.8,5.5,30.65,NNE,32,4.0,7.0,72,0.00,,,0.00,Wunderground v.1.15,2013-01-24 17:53:00,
2013-01-24 12:59:00,13.0,5.7,30.65,NNE,28,3.0,6.0,72,0.00,,,0.00,Wunderground v.1.15,2013-01-24 17:59:00,
2013-01-24 13:04:00,13.1,6.1,30.65,NE,44,4.0,6.0,73,0.00,,,0.00,Wunderground v.1.15,2013-01-24 18:04:00,
2013-01-24 13:10:00,13.5,5.8,30.65,NNE,19,4.0,5.0,71,0.00,,,0.00,Wunderground v.1.15,2013-01-24 18:10:00,
2013-01-24 13:16:00,13.2,5.2,30.65,NNW,345,4.0,6.0,70,0.00,,,0.00,Wunderground v.1.15,2013-01-24 18:16:00,
2013-01-24 13:21:00,13.3,5.6,30.65,North,9,4.0,7.0,71,0.00,,,0.00,Wunderground v.1.15,2013-01-24 18:21:00,
2013-01-24 13:26:00,13.5,5.5,30.65,NNE,25,4.0,7.0,70,0.00,,,0.00,Wunderground v.1.15,2013-01-24 18:26:00,
2013-01-24 13:32:00,13.5,5.2,30.65,North,360,3.0,4.0,69,0.00,,,0.00,Wunderground v.1.15,2013-01-24 18:32:00,
2013-01-24 13:38:00,13.4,5.1,30.65,WNW,298,3.0,6.0,69,0.00,,,0.00,Wunderground v.1.15,2013-01-24 18:38:00,
2013-01-24 13:43:00,13.5,5.2,30.65,NW,311,3.0,5.0,69,0.00,,,0.00,Wunderground v.1.15,2013-01-24 18:43:00,
2013-01-24 13:49:00,13.3,4.7,30.65,NNW,338,3.0,5.0,68,0.00,,,0.00,Wunderground v.1.15,2013-01-24 18:49:00,
2013-01-24 13:54:00,13.4,4.5,30.64,NNW,328,3.0,5.0,67,0.00,,,0.00,Wunderground v.1.15,2013-01-24 18:54:00,
2013-01-24 14:00:00,13.5,3.9,30.64,North,355,3.0,6.0,65,0.00,,,0.00,Wunderground v.1.15,2013-01-24 19:00:00,
2013-01-24 14:05:00,13.5,4.2,30.64,WNW,294,4.0,6.0,66,0.00,,,0.00,Wunderground v.1.15,2013-01-24 19:05:00,
2013-01-24 14:11:00,13.6,3.7,30.64,North,355,3.0,3.0,64,0.00,,,0.00,Wunderground v.1.15,2013-01-24 19:11:00,
2013-01-24 14:16:00,13.9,4.3,30.64,NW,325,2.0,4.0,65,0.00,,,0.00,Wunderground v.1.15,2013-01-24 19:16:00,
2013-01-24 14:21:00,13.9,3.6,30.65,North,360,3.0,5.0,63,0.00,,,0.00,Wunderground v.1.15,2013-01-24 19:21:00,
2013-01-24 14:27:00,13.7,3.4,30.64,North,350,4.0,6.0,63,0.00,,,0.00,Wunderground v.1.15,2013-01-24 19:27:00,
2013-01-24 14:43:00,14.3,2.9,30.64,NNE,18,2.0,5.0,60,0.00,,,0.00,Wunderground v.1.15,2013-01-24 19:43:00,
2013-01-24 14:49:00,14.5,2.8,30.64,North,360,3.0,5.0,59,0.00,,,0.00,Wunderground v.1.15,2013-01-24 19:49:00,
2013-01-24 14:54:00,14.4,2.3,30.64,NNE,13,3.0,3.0,58,0.00,,,0.00,Wunderground v.1.15,2013-01-24 19:54:00,
2013-01-24 15:00:00,14.3,1.8,30.64,NE,34,2.0,3.0,57,0.00,,,0.00,Wunderground v.1.15,2013-01-24 20:00:00,
2013-01-24 15:05:00,13.9,1.1,30.64,NNW,348,3.0,5.0,56,0.00,,,0.00,Wunderground v.1.15,2013-01-24 20:05:00,
2013-01-24 15:10:00,13.7,2.0,30.65,NE,35,3.0,6.0,59,0.00,,,0.00,Wunderground v.1.15,2013-01-24 20:10:00,
2013-01-24 15:15:00,13.7,1.6,30.65,North,5,4.0,6.0,58,0.00,,,0.00,Wunderground v.1.15,2013-01-24 20:15:00,
2013-01-24 15:21:00,13.4,1.7,30.65,WNW,296,3.0,5.0,59,0.00,,,0.00,Wunderground v.1.15,2013-01-24 20:21:00,
2013-01-24 15:27:00,13.3,2.0,30.64,North,9,3.0,5.0,60,0.00,,,0.00,Wunderground v.1.15,2013-01-24 20:27:00,
2013-01-24 15:33:00,13.5,1.4,30.64,North,349,2.0,3.0,58,0.00,,,0.00,Wunderground v.1.15,2013-01-24 20:33:00,
2013-01-24 15:39:00,13.4,1.0,30.65,NNE,15,3.0,6.0,57,0.00,,,0.00,Wunderground v.1.15,2013-01-24 20:39:00,
2013-01-24 15:44:00,13.3,1.3,30.65,North,360,3.0,3.0,58,0.00,,,0.00,Wunderground v.1.15,2013-01-24 20:44:00,
2013-01-24 15:50:00,13.3,0.9,30.65,North,5,3.0,5.0,57,0.00,,,0.00,Wunderground v.1.15,2013-01-24 20:50:00,
2013-01-24 15:55:00,13.2,0.4,30.65,North,360,3.0,6.0,56,0.00,,,0.00,Wunderground v.1.15,2013-01-24 20:55:00,
2013-01-24 16:01:00,13.1,-0.5,30.65,NNE,21,3.0,6.0,54,0.00,,,0.00,Wunderground v.1.15,2013-01-24 21:01:00,
2013-01-24 16:06:00,13.0,-0.6,30.66,North,360,3.0,6.0,54,0.00,,,0.00,Wunderground v.1.15,2013-01-24 21:06:00,
2013-01-24 16:11:00,13.0,-0.2,30.66,North,360,3.0,3.0,55,0.00,,,0.00,Wunderground v.1.15,2013-01-24 21:11:00,
2013-01-24 16:16:00,13.0,-0.2,30.65,North,360,3.0,4.0,55,0.00,,,0.00,Wunderground v.1.15,2013-01-24 21:16:00,
2013-01-24 16:22:00,13.0,-0.2,30.65,NNE,18,3.0,4.0,55,0.00,,,0.00,Wunderground v.1.15,2013-01-24 21:22:00,
2013-01-24 16:28:00,12.8,0.0,30.65,NNE,16,4.0,4.0,56,0.00,,,0.00,Wunderground v.1.15,2013-01-24 21:28:00,
2013-01-24 16:33:00,12.7,-0.1,30.65,NNE,30,3.0,5.0,56,0.00,,,0.00,Wunderground v.1.15,2013-01-24 21:33:00,
2013-01-24 16:39:00,12.6,0.2,30.66,NNE,28,3.0,3.0,57,0.00,,,0.00,Wunderground v.1.15,2013-01-24 21:39:00,
2013-01-24 16:44:00,12.4,0.0,30.65,NNE,28,3.0,5.0,57,0.00,,,0.00,Wunderground v.1.15,2013-01-24 21:44:00,
2013-01-24 16:50:00,12.2,0.2,30.65,NNE,28,3.0,3.0,58,0.00,,,0.00,Wunderground v.1.15,2013-01-24 21:50:00,
2013-01-24 16:55:00,12.0,0.0,30.65,NNE,28,2.0,3.0,58,0.00,,,0.00,Wunderground v.1.15,2013-01-24 21:55:00,
2013-01-24 17:01:00,11.8,0.2,30.65,NNE,28,1.0,1.0,59,0.00,,,0.00,Wunderground v.1.15,2013-01-24 22:01:00,
2013-01-24 17:06:00,11.6,0.4,30.65,NNE,28,1.0,3.0,60,0.00,,,0.00,Wunderground v.1.15,2013-01-24 22:06:00,
2013-01-24 17:12:00,11.4,0.2,30.66,NNE,28,1.0,1.0,60,0.00,,,0.00,Wunderground v.1.15,2013-01-24 22:12:00,
2013-01-24 17:17:00,11.2,0.0,30.65,NNE,28,0.0,1.0,60,0.00,,,0.00,Wunderground v.1.15,2013-01-24 22:17:00,
2013-01-24 17:23:00,10.9,0.1,30.65,NNE,28,0.0,0.0,61,0.00,,,0.00,Wunderground v.1.15,2013-01-24 22:23:00,
2013-01-24 17:29:00,10.5,-0.3,30.65,NNE,28,0.0,1.0,61,0.00,,,0.00,Wunderground v.1.15,2013-01-24 22:29:00,
2013-01-24 17:34:00,10.2,-0.2,30.65,NNE,28,0.0,1.0,62,0.00,,,0.00,Wunderground v.1.15,2013-01-24 22:34:00,
2013-01-24 17:39:00,9.9,-0.2,30.65,NNE,28,0.0,0.0,63,0.00,,,0.00,Wunderground v.1.15,2013-01-24 22:39:00,
2013-01-24 17:44:00,9.7,-0.4,30.65,NNE,28,0.0,0.0,63,0.00,,,0.00,Wunderground v.1.15,2013-01-24 22:44:00,
2013-01-24 17:51:00,9.4,-0.3,30.65,NNE,28,0.0,0.0,64,0.00,,,0.00,Wunderground v.1.15,2013-01-24 22:51:00,
2013-01-24 17:56:00,9.1,-0.6,30.65,NNE,28,0.0,0.0,64,0.00,,,0.00,Wunderground v.1.15,2013-01-24 22:56:00,
2013-01-24 18:02:00,8.7,-0.7,30.65,NNE,28,0.0,0.0,65,0.00,,,0.00,Wunderground v.1.15,2013-01-24 23:02:00,
2013-01-24 18:07:00,8.3,-0.7,30.65,NNE,28,0.0,0.0,66,0.00,,,0.00,Wunderground v.1.15,2013-01-24 23:07:00,
2013-01-24 18:13:00,7.8,-0.9,30.65,NNE,28,0.0,0.0,67,0.00,,,0.00,Wunderground v.1.15,2013-01-24 23:13:00,
2013-01-24 18:19:00,7.4,-1.0,30.65,NNE,28,0.0,0.0,68,0.00,,,0.00,Wunderground v.1.15,2013-01-24 23:19:00,
2013-01-24 18:24:00,7.2,-0.8,30.65,NNE,28,0.0,0.0,69,0.00,,,0.00,Wunderground v.1.15,2013-01-24 23:24:00,
2013-01-24 18:29:00,7.0,-0.7,30.65,NNE,28,0.0,0.0,70,0.00,,,0.00,Wunderground v.1.15,2013-01-24 23:29:00,
2013-01-24 18:34:00,6.8,-0.9,30.65,NNE,28,0.0,0.0,70,0.00,,,0.00,Wunderground v.1.15,2013-01-24 23:34:00,
2013-01-24 18:40:00,6.6,-0.8,30.65,NNE,28,0.0,0.0,71,0.00,,,0.00,Wunderground v.1.15,2013-01-24 23:40:00,
2013-01-24 18:45:00,6.4,-0.7,30.65,NNE,28,0.0,0.0,72,0.00,,,0.00,Wunderground v.1.15,2013-01-24 23:45:00,
2013-01-24 18:51:00,6.3,-0.5,30.65,NNE,28,0.0,0.0,73,0.00,,,0.00,Wunderground v.1.15,2013-01-24 23:51:00,
2013-01-24 18:57:00,6.2,-0.6,30.65,NNE,28,0.0,0.0,73,0.00,,,0.00,Wunderground v.1.15,2013-01-24 23:57:00,
2013-01-24 19:03:00,6.0,-1.1,30.65,NNE,28,0.0,0.0,72,0.00,,,0.00,Wunderground v.1.15,2013-01-25 00:03:00,
2013-01-24 19:08:00,5.7,-1.4,30.65,NNE,28,0.0,0.0,72,0.00,,,0.00,Wunderground v.1.15,2013-01-25 00:08:00,
2013-01-24 19:13:00,5.5,-1.3,30.65,NNE,28,0.0,0.0,73,0.00,,,0.00,Wunderground v.1.15,2013-01-25 00:13:00,
2013-01-24 19:19:00,5.4,-1.1,30.65,NNE,28,0.0,0.0,74,0.00,,,0.00,Wunderground v.1.15,2013-01-25 00:19:00,
2013-01-24 19:24:00,5.2,-1.3,30.65,NNE,28,0.0,0.0,74,0.00,,,0.00,Wunderground v.1.15,2013-01-25 00:24:00,
2013-01-24 19:31:00,5.1,-1.4,30.64,NNE,28,0.0,0.0,74,0.00,,,0.00,Wunderground v.1.15,2013-01-25 00:31:00,
2013-01-24 19:37:00,5.0,-1.2,30.64,NNE,28,0.0,0.0,75,0.00,,,0.00,Wunderground v.1.15,2013-01-25 00:37:00,
2013-01-24 19:43:00,5.0,-0.9,30.64,NNE,28,0.0,0.0,76,0.00,,,0.00,Wunderground v.1.15,2013-01-25 00:43:00,
2013-01-24 19:49:00,4.9,-1.0,30.63,NNE,28,0.0,0.0,76,0.00,,,0.00,Wunderground v.1.15,2013-01-25 00:49:00,
2013-01-24 19:54:00,4.9,-0.7,30.63,NNE,28,0.0,0.0,77,0.00,,,0.00,Wunderground v.1.15,2013-01-25 00:54:00,
2013-01-24 19:59:00,5.0,-0.4,30.63,NNE,28,0.0,0.0,78,0.00,,,0.00,Wunderground v.1.15,2013-01-25 00:59:00,
2013-01-24 20:04:00,5.1,-0.3,30.62,NNE,28,0.0,0.0,78,0.00,,,0.00,Wunderground v.1.15,2013-01-25 01:04:00,
2013-01-24 20:10:00,5.1,-0.3,30.62,NNE,28,0.0,0.0,78,0.00,,,0.00,Wunderground v.1.15,2013-01-25 01:10:00,
2013-01-24 20:15:00,5.2,0.1,30.62,NNE,28,0.0,0.0,79,0.00,,,0.00,Wunderground v.1.15,2013-01-25 01:15:00,
2013-01-24 20:21:00,5.4,0.3,30.62,NNE,28,0.0,0.0,79,0.00,,,0.00,Wunderground v.1.15,2013-01-25 01:21:00,
2013-01-24 20:27:00,5.5,0.4,30.61,NNE,28,0.0,0.0,79,0.00,,,0.00,Wunderground v.1.15,2013-01-25 01:27:00,
2013-01-24 20:33:00,5.8,1.0,30.61,NNE,28,0.0,0.0,80,0.00,,,0.00,Wunderground v.1.15,2013-01-25 01:33:00,
2013-01-24 20:39:00,6.0,1.2,30.60,NNE,28,0.0,0.0,80,0.00,,,0.00,Wunderground v.1.15,2013-01-25 01:39:00,
2013-01-24 20:45:00,6.3,1.4,30.60,NNE,28,0.0,0.0,80,0.00,,,0.00,Wunderground v.1.15,2013-01-25 01:45:00,
2013-01-24 20:51:00,6.5,1.6,30.60,NNE,28,0.0,0.0,80,0.00,,,0.00,Wunderground v.1.15,2013-01-25 01:51:00,
2013-01-24 20:56:00,6.7,2.1,30.60,NNE,28,0.0,0.0,81,0.00,,,0.00,Wunderground v.1.15,2013-01-25 01:56:00,
2013-01-24 21:01:00,6.8,1.9,30.61,NNE,28,0.0,0.0,80,0.00,,,0.00,Wunderground v.1.15,2013-01-25 02:01:00,
2013-01-24 21:06:00,6.9,2.3,30.60,NNE,28,0.0,0.0,81,0.00,,,0.00,Wunderground v.1.15,2013-01-25 02:06:00,
2013-01-24 21:13:00,7.0,2.1,30.60,NNE,28,0.0,0.0,80,0.00,,,0.00,Wunderground v.1.15,2013-01-25 02:13:00,
2013-01-24 21:18:00,7.2,2.1,30.61,NNE,28,0.0,0.0,79,0.00,,,0.00,Wunderground v.1.15,2013-01-25 02:18:00,
2013-01-24 21:23:00,7.3,1.9,30.61,NNE,28,0.0,0.0,78,0.00,,,0.00,Wunderground v.1.15,2013-01-25 02:23:00,
2013-01-24 21:29:00,7.6,1.9,30.60,NNE,28,0.0,0.0,77,0.00,,,0.00,Wunderground v.1.15,2013-01-25 02:29:00,
2013-01-24 21:34:00,7.8,2.1,30.60,NNE,28,0.0,0.0,77,0.00,,,0.00,Wunderground v.1.15,2013-01-25 02:34:00,
2013-01-24 21:41:00,8.1,2.1,30.61,NNE,28,0.0,0.0,76,0.00,,,0.00,Wunderground v.1.15,2013-01-25 02:41:00,
2013-01-24 21:46:00,8.2,2.2,30.60,NNE,28,0.0,0.0,76,0.00,,,0.00,Wunderground v.1.15,2013-01-25 02:46:00,
2013-01-24 21:52:00,8.5,2.5,30.60,NNE,28,0.0,0.0,76,0.00,,,0.00,Wunderground v.1.15,2013-01-25 02:52:00,
2013-01-24 21:58:00,8.6,2.3,30.60,NNE,28,0.0,0.0,75,0.00,,,0.00,Wunderground v.1.15,2013-01-25 02:58:00,
2013-01-24 22:03:00,8.8,2.5,30.60,NNE,28,0.0,0.0,75,0.00,,,0.00,Wunderground v.1.15,2013-01-25 03:03:00,
2013-01-24 22:09:00,9.0,2.4,30.60,NNE,28,0.0,1.0,74,0.00,,,0.00,Wunderground v.1.15,2013-01-25 03:09:00,
2013-01-24 22:14:00,9.1,2.5,30.61,NNE,28,1.0,2.0,74,0.00,,,0.00,Wunderground v.1.15,2013-01-25 03:14:00,
2013-01-24 22:19:00,9.3,2.4,30.60,NNE,28,1.0,1.0,73,0.00,,,0.00,Wunderground v.1.15,2013-01-25 03:19:00,
2013-01-24 22:24:00,9.4,2.5,30.60,NNE,28,0.0,1.0,73,0.00,,,0.00,Wunderground v.1.15,2013-01-25 03:24:00,
2013-01-24 22:30:00,9.6,2.7,30.59,NNE,28,0.0,0.0,73,0.00,,,0.00,Wunderground v.1.15,2013-01-25 03:30:00,
2013-01-24 22:35:00,9.6,2.4,30.59,NNE,28,0.0,0.0,72,0.00,,,0.00,Wunderground v.1.15,2013-01-25 03:35:00,
2013-01-24 22:42:00,9.8,2.3,30.60,NNE,28,0.0,1.0,71,0.00,,,0.00,Wunderground v.1.15,2013-01-25 03:42:00,
2013-01-24 22:47:00,9.9,2.1,30.59,NNE,28,0.0,1.0,70,0.00,,,0.00,Wunderground v.1.15,2013-01-25 03:47:00,
2013-01-24 22:53:00,9.9,2.1,30.59,NNE,28,0.0,1.0,70,0.00,,,0.00,Wunderground v.1.15,2013-01-25 03:53:00,
2013-01-24 22:58:00,9.9,2.4,30.59,NNE,28,0.0,3.0,71,0.00,,,0.00,Wunderground v.1.15,2013-01-25 03:58:00,
2013-01-24 23:04:00,9.9,2.1,30.59,NNE,28,0.0,1.0,70,0.00,,,0.00,Wunderground v.1.15,2013-01-25 04:04:00,
2013-01-24 23:10:00,10.0,2.2,30.59,NNE,28,0.0,0.0,70,0.00,,,0.00,Wunderground v.1.15,2013-01-25 04:10:00,
2013-01-24 23:15:00,10.0,2.2,30.59,NNE,28,0.0,1.0,70,0.00,,,0.00,Wunderground v.1.15,2013-01-25 04:15:00,
2013-01-24 23:20:00,10.1,2.6,30.58,NNE,28,0.0,0.0,71,0.00,,,0.00,Wunderground v.1.15,2013-01-25 04:20:00,
2013-01-24 23:26:00,10.1,2.6,30.58,NNE,28,0.0,2.0,71,0.00,,,0.00,Wunderground v.1.15,2013-01-25 04:26:00,
2013-01-24 23:31:00,10.2,2.7,30.58,NNE,28,0.0,0.0,71,0.00,,,0.00,Wunderground v.1.15,2013-01-25 04:31:00,
2013-01-24 23:36:00,10.3,2.8,30.58,NNE,28,0.0,1.0,71,0.00,,,0.00,Wunderground v.1.15,2013-01-25 04:36:00,
2013-01-24 23:43:00,10.3,2.8,30.59,NNE,28,0.0,0.0,71,0.00,,,0.00,Wunderground v.1.15,2013-01-25 04:43:00,
2013-01-24 23:48:00,10.4,2.9,30.58,NNE,28,0.0,1.0,71,0.00,,,0.00,Wunderground v.1.15,2013-01-25 04:48:00,
2013-01-24 23:53:00,10.5,2.9,30.58,NNE,28,0.0,0.0,71,0.00,,,0.00,Wunderground v.1.15,2013-01-25 04:53:00,
2013-01-24 23:59:00,10.6,3.0,30.58,NNE,28,0.0,0.0,71,0.00,,,0.00,Wunderground v.1.15,2013-01-25 04:59:00,